Time;durP1;ratioP1;P1;durP2;ratioP2;P2;SDS_P1;SDS_P2;PMS_P1;PMS_P2;Temp;Humidity;BMP_temperature;BMP_pressure;BME280_temperature;BME280_humidity;BME280_pressure;Samples;Min_cycle;Max_cycle;Signal;HPM_P1;HPM_P2
2023/12/12 00:00:31;;;;;;;;;;;18.70;62.00;;;;;;5040484;28;1331;-70
2023/12/12 00:02:57;;;;;;;;;;;18.70;62.10;;;;;;5041077;28;1257;-69
2023/12/12 00:05:22;;;;;;;;;;;18.70;62.10;;;;;;5038960;28;1559;-70
2023/12/12 00:07:47;;;;;;;;;;;18.70;62.10;;;;;;5037862;28;1367;-70
2023/12/12 00:10:13;;;;;;;;;;;18.70;62.10;;;;;;5038789;28;1290;-69
2023/12/12 00:12:38;;;;;;;;;;;18.70;62.10;;;;;;5047304;28;1969;-70
2023/12/12 00:15:04;;;;;;;;;;;18.70;62.10;;;;;;5041721;28;1336;-70
2023/12/12 00:17:30;;;;;;;;;;;18.70;62.20;;;;;;5038596;28;1288;-70
2023/12/12 00:19:55;;;;;;;;;;;18.70;62.20;;;;;;5040261;28;1273;-69
2023/12/12 00:22:21;;;;;;;;;;;18.70;62.20;;;;;;5038985;28;1377;-67
2023/12/12 00:24:46;;;;;;;;;;;18.70;62.20;;;;;;5043873;28;1206;-68
2023/12/12 00:27:11;;;;;;;;;;;18.70;62.20;;;;;;5039684;28;1308;-68
2023/12/12 00:29:38;;;;;;;;;;;18.70;62.30;;;;;;5041309;28;1394;-67
2023/12/12 00:32:04;;;;;;;;;;;18.70;62.20;;;;;;5039696;28;1961;-68
2023/12/12 00:34:29;;;;;;;;;;;18.70;62.30;;;;;;5036970;28;1249;-69
2023/12/12 00:36:55;;;;;;;;;;;18.60;62.20;;;;;;5039611;28;1239;-69
2023/12/12 00:39:20;;;;;;;;;;;18.70;62.30;;;;;;5039168;28;1296;-70
2023/12/12 00:41:47;;;;;;;;;;;18.60;62.20;;;;;;5038151;28;1438;-69
2023/12/12 00:44:13;;;;;;;;;;;18.60;62.20;;;;;;5035724;28;1485;-70
2023/12/12 00:46:39;;;;;;;;;;;18.60;62.30;;;;;;5039020;28;1356;-70
2023/12/12 00:49:04;;;;;;;;;;;18.60;62.30;;;;;;5040755;28;1388;-69
2023/12/12 00:51:29;;;;;;;;;;;18.60;62.40;;;;;;5046058;28;1910;-70
2023/12/12 00:53:55;;;;;;;;;;;18.60;62.30;;;;;;5038388;28;1249;-69
2023/12/12 00:56:20;;;;;;;;;;;18.60;62.40;;;;;;5038514;28;1217;-70
2023/12/12 00:58:46;;;;;;;;;;;18.60;62.30;;;;;;5040602;28;1350;-70
2023/12/12 01:01:13;;;;;;;;;;;18.60;62.40;;;;;;5038601;28;1800;-70
2023/12/12 01:03:39;;;;;;;;;;;18.60;62.40;;;;;;5040995;28;1537;-70
2023/12/12 01:06:05;;;;;;;;;;;18.60;62.40;;;;;;5040500;28;1310;-70
2023/12/12 01:08:30;;;;;;;;;;;18.60;62.40;;;;;;5036885;28;1505;-69
2023/12/12 01:10:55;;;;;;;;;;;18.60;62.40;;;;;;5039377;28;1258;-70
2023/12/12 01:13:21;;;;;;;;;;;18.60;62.40;;;;;;5037679;28;1965;-70
2023/12/12 01:15:46;;;;;;;;;;;18.60;62.40;;;;;;5037408;28;1188;-70
2023/12/12 01:18:12;;;;;;;;;;;18.60;62.40;;;;;;5037208;28;1304;-70
2023/12/12 01:20:37;;;;;;;;;;;18.60;62.40;;;;;;5038775;28;1296;-69
2023/12/12 01:23:03;;;;;;;;;;;18.60;62.40;;;;;;5068168;28;1937;-69
2023/12/12 01:25:30;;;;;;;;;;;18.60;62.40;;;;;;5038221;28;1821;-69
2023/12/12 01:27:55;;;;;;;;;;;18.60;62.50;;;;;;5038550;28;1378;-68
2023/12/12 01:30:20;;;;;;;;;;;18.60;62.50;;;;;;5040291;28;1505;-70
2023/12/12 01:32:46;;;;;;;;;;;18.60;62.50;;;;;;5035555;28;1906;-69
2023/12/12 01:35:11;;;;;;;;;;;18.60;62.50;;;;;;5040385;28;1604;-69
2023/12/12 01:37:37;;;;;;;;;;;18.60;62.50;;;;;;5041107;28;1310;-69
2023/12/12 01:40:04;;;;;;;;;;;18.60;62.50;;;;;;5069434;28;1386;-70
2023/12/12 01:42:30;;;;;;;;;;;18.60;62.50;;;;;;5037774;28;1328;-71
2023/12/12 01:44:55;;;;;;;;;;;18.60;62.60;;;;;;5039664;28;1286;-70
2023/12/12 01:47:21;;;;;;;;;;;18.60;62.60;;;;;;5038151;28;1405;-69
2023/12/12 01:49:46;;;;;;;;;;;18.60;62.50;;;;;;5037608;28;1741;-69
2023/12/12 01:52:13;;;;;;;;;;;18.60;62.60;;;;;;5039183;28;1965;-68
2023/12/12 01:54:39;;;;;;;;;;;18.60;62.50;;;;;;5038689;28;1328;-69
2023/12/12 01:57:04;;;;;;;;;;;18.60;62.80;;;;;;5038617;28;2268;-68
2023/12/12 01:59:30;;;;;;;;;;;18.60;62.90;;;;;;5037258;28;1458;-67
2023/12/12 02:01:55;;;;;;;;;;;18.70;63.00;;;;;;5036147;28;1491;-67
2023/12/12 02:04:21;;;;;;;;;;;18.70;63.20;;;;;;5043476;28;1679;-69
2023/12/12 02:06:46;;;;;;;;;;;18.70;63.10;;;;;;5038519;28;1971;-69
2023/12/12 02:09:12;;;;;;;;;;;18.80;63.00;;;;;;5039978;28;1424;-69
2023/12/12 02:11:37;;;;;;;;;;;18.90;62.70;;;;;;5039223;28;1910;-69
2023/12/12 02:14:03;;;;;;;;;;;18.90;62.60;;;;;;5039493;28;1395;-69
2023/12/12 02:16:28;;;;;;;;;;;18.90;62.60;;;;;;5035164;28;1435;-69
2023/12/12 02:18:54;;;;;;;;;;;18.90;62.60;;;;;;5037206;28;1569;-69
2023/12/12 02:21:20;;;;;;;;;;;18.90;62.60;;;;;;5036797;28;1523;-68
2023/12/12 02:23:47;;;;;;;;;;;18.90;62.70;;;;;;5038047;28;1811;-69
2023/12/12 02:26:12;;;;;;;;;;;18.90;62.90;;;;;;5037824;28;1409;-69
2023/12/12 02:28:38;;;;;;;;;;;18.90;62.80;;;;;;5041894;28;1637;-69
2023/12/12 02:31:03;;;;;;;;;;;18.90;62.90;;;;;;5041684;28;1498;-69
2023/12/12 02:33:29;;;;;;;;;;;18.90;62.90;;;;;;5042261;28;1914;-67
2023/12/12 02:35:54;;;;;;;;;;;18.90;62.90;;;;;;5031631;28;1452;-69
2023/12/12 02:38:20;;;;;;;;;;;18.90;63.00;;;;;;5041948;28;1612;-69
2023/12/12 02:40:45;;;;;;;;;;;18.90;63.00;;;;;;5041382;28;1402;-68
2023/12/12 02:43:11;;;;;;;;;;;18.90;63.00;;;;;;5039998;28;1426;-68
2023/12/12 02:45:36;;;;;;;;;;;18.90;63.00;;;;;;5073195;28;1592;-68
2023/12/12 02:48:02;;;;;;;;;;;18.90;63.10;;;;;;5049104;28;1429;-69
2023/12/12 02:50:27;;;;;;;;;;;18.90;63.30;;;;;;5040097;28;1331;-68
2023/12/12 02:52:53;;;;;;;;;;;18.90;63.30;;;;;;5043609;28;1989;-66
2023/12/12 02:55:18;;;;;;;;;;;18.90;63.30;;;;;;5047804;28;1162;-66
2023/12/12 02:57:44;;;;;;;;;;;18.90;63.40;;;;;;5042277;28;1228;-67
2023/12/12 03:00:09;;;;;;;;;;;19.00;63.50;;;;;;5039808;28;1367;-67
2023/12/12 03:02:35;;;;;;;;;;;19.00;63.80;;;;;;5039162;28;1452;-66
2023/12/12 03:05:00;;;;;;;;;;;19.00;63.60;;;;;;5040728;28;1346;-67
2023/12/12 03:07:26;;;;;;;;;;;18.90;63.50;;;;;;5043058;28;1676;-68
2023/12/12 03:09:52;;;;;;;;;;;19.00;63.60;;;;;;5039667;28;1448;-68
2023/12/12 03:12:17;;;;;;;;;;;18.90;63.60;;;;;;5044649;28;1902;-67
2023/12/12 03:14:43;;;;;;;;;;;18.90;63.70;;;;;;5041858;28;1209;-70
2023/12/12 03:17:08;;;;;;;;;;;18.90;63.70;;;;;;5043001;28;1290;-69
2023/12/12 03:19:34;;;;;;;;;;;18.90;63.80;;;;;;5044775;28;1365;-69
2023/12/12 03:21:59;;;;;;;;;;;18.90;63.80;;;;;;5039034;28;1694;-69
2023/12/12 03:24:25;;;;;;;;;;;19.00;64.00;;;;;;5038726;28;1354;-68
2023/12/12 03:26:50;;;;;;;;;;;19.00;64.00;;;;;;5040870;28;1337;-68
2023/12/12 03:29:16;;;;;;;;;;;19.00;64.00;;;;;;5042991;28;1390;-68
2023/12/12 03:31:44;;;;;;;;;;;19.00;64.10;;;;;;5040619;28;1959;-68
2023/12/12 03:34:10;;;;;;;;;;;19.00;64.20;;;;;;5040646;28;1382;-68
2023/12/12 03:36:35;;;;;;;;;;;19.00;64.30;;;;;;5039488;28;1467;-67
2023/12/12 03:39:01;;;;;;;;;;;19.00;64.30;;;;;;5040744;28;1886;-68
2023/12/12 03:41:30;;;;;;;;;;;19.00;64.30;;;;;;5038674;28;1443;-68
2023/12/12 03:43:55;;;;;;;;;;;19.00;64.20;;;;;;5038591;28;1284;-68
2023/12/12 03:46:21;;;;;;;;;;;19.00;64.30;;;;;;5042558;28;1585;-68
2023/12/12 03:48:46;;;;;;;;;;;19.00;64.40;;;;;;5039444;28;1710;-68
2023/12/12 03:51:12;;;;;;;;;;;19.00;64.40;;;;;;5023062;28;1371;-67
2023/12/12 03:53:38;;;;;;;;;;;19.00;65.30;;;;;;5039873;28;1902;-67
2023/12/12 03:56:04;;;;;;;;;;;19.00;64.60;;;;;;5038416;28;1498;-68
2023/12/12 03:58:29;;;;;;;;;;;19.00;64.70;;;;;;5042281;28;1433;-68
2023/12/12 04:00:55;;;;;;;;;;;19.00;64.80;;;;;;5039515;28;1242;-68
2023/12/12 04:03:20;;;;;;;;;;;19.00;64.80;;;;;;5037330;28;1396;-68
2023/12/12 04:05:46;;;;;;;;;;;18.90;64.70;;;;;;5039917;28;1387;-68
2023/12/12 04:08:12;;;;;;;;;;;18.90;64.80;;;;;;5038292;28;1379;-68
2023/12/12 04:10:37;;;;;;;;;;;18.90;64.90;;;;;;5037091;28;1573;-67
2023/12/12 04:13:03;;;;;;;;;;;18.90;64.90;;;;;;5038757;28;1972;-67
2023/12/12 04:15:28;;;;;;;;;;;18.90;64.90;;;;;;5038320;28;1259;-68
2023/12/12 04:17:54;;;;;;;;;;;18.90;65.00;;;;;;5035056;28;1436;-68
2023/12/12 04:20:19;;;;;;;;;;;18.90;65.10;;;;;;5038905;28;1550;-67
2023/12/12 04:22:45;;;;;;;;;;;18.90;65.20;;;;;;5040879;28;1329;-68
2023/12/12 04:25:11;;;;;;;;;;;18.90;65.40;;;;;;5039267;28;1336;-68
2023/12/12 04:27:37;;;;;;;;;;;18.90;65.30;;;;;;5036002;28;1292;-67
2023/12/12 04:30:04;;;;;;;;;;;19.00;65.90;;;;;;5040460;28;1362;-67
2023/12/12 04:32:30;;;;;;;;;;;19.00;66.00;;;;;;5036871;28;1969;-68
2023/12/12 04:34:55;;;;;;;;;;;19.00;66.20;;;;;;5040290;28;1579;-68
2023/12/12 04:37:21;;;;;;;;;;;19.00;65.70;;;;;;5039036;28;1454;-68
2023/12/12 04:39:46;;;;;;;;;;;19.00;65.70;;;;;;5038148;28;1313;-68
2023/12/12 04:42:13;;;;;;;;;;;19.00;65.80;;;;;;5039723;28;1439;-69
2023/12/12 04:44:40;;;;;;;;;;;19.00;66.10;;;;;;5036851;28;1248;-69
2023/12/12 04:47:06;;;;;;;;;;;19.00;66.10;;;;;;5039651;28;1362;-68
2023/12/12 04:49:31;;;;;;;;;;;19.00;66.20;;;;;;5038428;28;1414;-69
2023/12/12 04:51:57;;;;;;;;;;;19.00;66.20;;;;;;5039290;28;1963;-69
2023/12/12 04:54:22;;;;;;;;;;;19.00;66.10;;;;;;5039301;28;1359;-69
2023/12/12 04:56:47;;;;;;;;;;;19.00;66.10;;;;;;5037815;28;1287;-69
2023/12/12 04:59:13;;;;;;;;;;;19.00;66.10;;;;;;5039439;28;1354;-68
2023/12/12 05:01:38;;;;;;;;;;;19.00;66.10;;;;;;5040870;28;1044;-69
2023/12/12 05:04:04;;;;;;;;;;;19.00;66.10;;;;;;5037665;28;1265;-68
2023/12/12 05:06:30;;;;;;;;;;;19.00;66.00;;;;;;5036539;28;1379;-69
2023/12/12 05:08:55;;;;;;;;;;;19.10;66.60;;;;;;5037544;28;1379;-68
2023/12/12 05:11:21;;;;;;;;;;;19.10;66.60;;;;;;5029313;28;1356;-68
2023/12/12 05:13:46;;;;;;;;;;;19.10;66.50;;;;;;5038935;28;1969;-68
2023/12/12 05:16:12;;;;;;;;;;;19.20;66.80;;;;;;5036695;28;1234;-68
2023/12/12 05:18:38;;;;;;;;;;;19.30;67.00;;;;;;5039604;28;1517;-68
2023/12/12 05:21:04;;;;;;;;;;;19.30;66.90;;;;;;5039872;28;1420;-68
2023/12/12 05:23:29;;;;;;;;;;;19.40;67.40;;;;;;5035707;28;1309;-68
2023/12/12 05:25:55;;;;;;;;;;;19.50;66.40;;;;;;5039880;28;1506;-68
2023/12/12 05:28:21;;;;;;;;;;;19.60;66.20;;;;;;5038159;28;1423;-69
2023/12/12 05:30:47;;;;;;;;;;;19.70;66.00;;;;;;5036717;28;1236;-68
2023/12/12 05:33:12;;;;;;;;;;;19.80;65.80;;;;;;5035579;28;1906;-69
2023/12/12 05:35:38;;;;;;;;;;;19.90;65.60;;;;;;5037726;28;1416;-68
2023/12/12 05:38:04;;;;;;;;;;;20.00;66.20;;;;;;5038690;28;1411;-69
2023/12/12 05:40:30;;;;;;;;;;;20.10;66.30;;;;;;5020663;28;1357;-69
2023/12/12 05:42:56;;;;;;;;;;;20.30;66.00;;;;;;5038979;28;1236;-69
2023/12/12 05:45:22;;;;;;;;;;;20.30;65.50;;;;;;5038196;28;1222;-69
2023/12/12 05:47:48;;;;;;;;;;;20.40;65.20;;;;;;5020574;28;2198;-69
2023/12/12 05:50:13;;;;;;;;;;;20.50;65.00;;;;;;5036637;28;1942;-67
2023/12/12 05:52:39;;;;;;;;;;;20.60;64.70;;;;;;5034088;28;1963;-68
2023/12/12 05:55:05;;;;;;;;;;;20.60;64.50;;;;;;5036160;28;1326;-69
2023/12/12 05:57:31;;;;;;;;;;;20.70;64.30;;;;;;5035503;28;1949;-67
2023/12/12 05:59:56;;;;;;;;;;;20.80;64.20;;;;;;5034700;28;1436;-68
2023/12/12 06:02:22;;;;;;;;;;;20.80;64.10;;;;;;5038553;28;1550;-68
2023/12/12 06:04:48;;;;;;;;;;;20.90;63.90;;;;;;4993146;28;11302;-68
2023/12/12 06:07:13;;;;;;;;;;;20.90;63.90;;;;;;5056942;28;1479;-68
2023/12/12 06:09:39;;;;;;;;;;;21.00;63.90;;;;;;5035623;28;1396;-68
2023/12/12 06:12:05;;;;;;;;;;;21.00;63.90;;;;;;5036336;28;1914;-69
2023/12/12 06:14:31;;;;;;;;;;;21.10;63.90;;;;;;5039617;28;1471;-70
2023/12/12 06:16:56;;;;;;;;;;;21.10;63.90;;;;;;5039250;28;1157;-69
2023/12/12 06:19:22;;;;;;;;;;;21.10;63.80;;;;;;5036279;28;1398;-69
2023/12/12 06:21:52;;;;;;;;;;;21.10;63.70;;;;;;5038757;28;1332;-68
2023/12/12 06:24:17;;;;;;;;;;;21.20;63.80;;;;;;5067014;28;1360;-68
2023/12/12 06:26:42;;;;;;;;;;;21.20;63.80;;;;;;5038170;28;1124;-68
2023/12/12 06:29:09;;;;;;;;;;;21.20;64.70;;;;;;5038048;28;1431;-68
2023/12/12 06:31:34;;;;;;;;;;;21.30;64.70;;;;;;5037881;28;1898;-67
2023/12/12 06:34:00;;;;;;;;;;;21.30;64.30;;;;;;5035523;28;1237;-68
2023/12/12 06:36:25;;;;;;;;;;;21.30;64.00;;;;;;5036599;28;1260;-67
2023/12/12 06:38:51;;;;;;;;;;;21.30;63.80;;;;;;5036353;28;1570;-67
2023/12/12 06:41:17;;;;;;;;;;;21.20;63.70;;;;;;5036282;28;1788;-67
2023/12/12 06:43:45;;;;;;;;;;;21.20;63.50;;;;;;5035745;28;1572;-67
2023/12/12 06:46:10;;;;;;;;;;;21.30;63.50;;;;;;5040551;28;1438;-67
2023/12/12 06:48:37;;;;;;;;;;;21.20;63.40;;;;;;5038851;28;1388;-69
2023/12/12 06:51:06;;;;;;;;;;;21.20;63.40;;;;;;5066118;28;1498;-69
2023/12/12 06:53:32;;;;;;;;;;;21.30;63.40;;;;;;5036517;28;1934;-70
2023/12/12 06:55:57;;;;;;;;;;;21.30;63.60;;;;;;5036993;28;1792;-68
2023/12/12 06:58:24;;;;;;;;;;;21.20;63.50;;;;;;5035285;28;1627;-68
2023/12/12 07:00:50;;;;;;;;;;;21.20;63.40;;;;;;5036006;28;1707;-68
2023/12/12 07:03:15;;;;;;;;;;;21.20;63.50;;;;;;5068943;28;1329;-68
2023/12/12 07:05:40;;;;;;;;;;;21.20;63.50;;;;;;5035130;28;1543;-69
2023/12/12 07:08:06;;;;;;;;;;;21.20;63.80;;;;;;5037674;28;1412;-68
2023/12/12 07:10:31;;;;;;;;;;;21.20;63.70;;;;;;5038489;28;1287;-68
2023/12/12 07:12:57;;;;;;;;;;;21.20;63.80;;;;;;5037466;28;1906;-68
2023/12/12 07:15:23;;;;;;;;;;;21.10;63.80;;;;;;5038458;28;1296;-68
2023/12/12 07:17:49;;;;;;;;;;;21.10;63.80;;;;;;5073192;28;1659;-68
2023/12/12 07:20:14;;;;;;;;;;;21.10;64.00;;;;;;5040637;28;1523;-68
2023/12/12 07:22:40;;;;;;;;;;;21.10;64.20;;;;;;5039629;28;1324;-68
2023/12/12 07:25:05;;;;;;;;;;;21.00;64.30;;;;;;5038621;28;1458;-68
2023/12/12 07:27:31;;;;;;;;;;;21.00;64.50;;;;;;5039666;28;1544;-68
2023/12/12 07:29:57;;;;;;;;;;;21.00;65.40;;;;;;5040900;28;1482;-68
2023/12/12 07:32:23;;;;;;;;;;;21.00;66.30;;;;;;5041940;28;1969;-68
2023/12/12 07:34:49;;;;;;;;;;;21.00;66.30;;;;;;5040558;28;1480;-68
2023/12/12 07:37:14;;;;;;;;;;;21.00;66.30;;;;;;5040010;28;1386;-68
2023/12/12 07:39:40;;;;;;;;;;;21.00;66.40;;;;;;5041538;28;1617;-69
2023/12/12 07:42:05;;;;;;;;;;;21.00;66.40;;;;;;5038974;28;1544;-68
2023/12/12 07:44:31;;;;;;;;;;;20.90;66.30;;;;;;5038564;28;1683;-68
2023/12/12 07:46:56;;;;;;;;;;;20.90;66.10;;;;;;5038017;28;1279;-68
2023/12/12 07:49:22;;;;;;;;;;;20.90;66.10;;;;;;5038703;28;1764;-68
2023/12/12 07:51:49;;;;;;;;;;;20.90;66.00;;;;;;5071580;28;1971;-68
2023/12/12 07:54:15;;;;;;;;;;;20.90;66.00;;;;;;5042463;28;1350;-68
2023/12/12 07:56:41;;;;;;;;;;;20.90;66.10;;;;;;5041071;28;1252;-68
2023/12/12 07:59:06;;;;;;;;;;;20.80;65.90;;;;;;5039628;28;1347;-68
2023/12/12 08:01:32;;;;;;;;;;;20.80;65.70;;;;;;5038900;28;1415;-68
2023/12/12 08:03:58;;;;;;;;;;;20.80;65.80;;;;;;5039946;28;1447;-68
2023/12/12 08:06:24;;;;;;;;;;;20.80;65.80;;;;;;5038392;28;1256;-68
2023/12/12 08:08:50;;;;;;;;;;;20.80;66.00;;;;;;5041019;28;1283;-68
2023/12/12 08:11:15;;;;;;;;;;;20.80;66.00;;;;;;5039133;28;1360;-68
2023/12/12 08:13:41;;;;;;;;;;;20.90;65.90;;;;;;5038741;28;1914;-68
2023/12/12 08:16:07;;;;;;;;;;;20.90;65.70;;;;;;5040299;28;1447;-68
2023/12/12 08:18:32;;;;;;;;;;;20.90;65.70;;;;;;5038442;28;1374;-68
2023/12/12 08:20:58;;;;;;;;;;;20.90;65.70;;;;;;5041027;28;1414;-68
2023/12/12 08:23:23;;;;;;;;;;;20.80;65.60;;;;;;5038877;28;1344;-68
2023/12/12 08:25:49;;;;;;;;;;;20.80;65.60;;;;;;5038035;28;1506;-68
2023/12/12 08:28:14;;;;;;;;;;;20.80;65.90;;;;;;5040380;28;1395;-68
2023/12/12 08:30:40;;;;;;;;;;;20.80;66.10;;;;;;5070787;28;1495;-69
2023/12/12 08:33:06;;;;;;;;;;;20.80;66.20;;;;;;5022101;28;1969;-69
2023/12/12 08:35:31;;;;;;;;;;;20.70;66.10;;;;;;5038962;28;1378;-70
2023/12/12 08:37:57;;;;;;;;;;;20.70;66.00;;;;;;5036461;28;1534;-69
2023/12/12 08:40:22;;;;;;;;;;;20.70;66.00;;;;;;5038419;28;1351;-70
2023/12/12 08:42:48;;;;;;;;;;;20.70;66.00;;;;;;5037801;28;1075;-70
2023/12/12 08:45:13;;;;;;;;;;;20.70;65.90;;;;;;5038962;28;1163;-70
2023/12/12 08:47:39;;;;;;;;;;;20.70;65.80;;;;;;5039665;28;1374;-70
2023/12/12 08:50:04;;;;;;;;;;;20.70;65.70;;;;;;5039783;28;1270;-70
2023/12/12 08:52:33;;;;;;;;;;;20.70;65.70;;;;;;5041017;28;1965;-70
2023/12/12 08:54:58;;;;;;;;;;;20.70;65.70;;;;;;5068498;28;1348;-69
2023/12/12 08:57:24;;;;;;;;;;;20.70;65.70;;;;;;5040335;28;1347;-69
2023/12/12 08:59:49;;;;;;;;;;;20.70;65.60;;;;;;5073749;28;1629;-70
2023/12/12 09:02:16;;;;;;;;;;;20.70;66.30;;;;;;5043042;28;1788;-70
2023/12/12 09:04:41;;;;;;;;;;;20.70;65.50;;;;;;5037330;28;1500;-69
2023/12/12 09:07:07;;;;;;;;;;;20.60;65.40;;;;;;5071610;28;1265;-68
2023/12/12 09:09:32;;;;;;;;;;;20.70;65.50;;;;;;5037401;28;2250;-69
2023/12/12 09:11:58;;;;;;;;;;;20.70;65.50;;;;;;5070701;28;1895;-69
2023/12/12 09:14:24;;;;;;;;;;;20.70;65.40;;;;;;5039508;28;1397;-69
2023/12/12 09:16:49;;;;;;;;;;;20.70;65.40;;;;;;5037261;28;1186;-67
2023/12/12 09:19:16;;;;;;;;;;;20.70;65.30;;;;;;5038788;28;2153;-68
2023/12/12 09:21:42;;;;;;;;;;;20.70;65.30;;;;;;5071225;28;1599;-68
2023/12/12 09:24:07;;;;;;;;;;;20.70;65.20;;;;;;5069359;28;1456;-68
2023/12/12 09:26:33;;;;;;;;;;;20.70;65.20;;;;;;5039577;28;948;-68
2023/12/12 09:28:58;;;;;;;;;;;20.70;65.10;;;;;;5068932;28;1390;-67
2023/12/12 09:31:26;;;;;;;;;;;20.70;65.10;;;;;;5037975;28;1491;-67
2023/12/12 09:33:52;;;;;;;;;;;20.60;65.10;;;;;;5039171;28;1906;-67
2023/12/12 09:36:18;;;;;;;;;;;20.60;65.20;;;;;;5036197;28;1997;-67
2023/12/12 09:38:44;;;;;;;;;;;20.60;66.10;;;;;;5073977;28;1642;-68
2023/12/12 09:41:12;;;;;;;;;;;20.60;65.50;;;;;;5039760;28;1404;-68
2023/12/12 09:43:38;;;;;;;;;;;20.60;65.40;;;;;;5039819;28;1692;-67
2023/12/12 09:46:03;;;;;;;;;;;20.60;65.50;;;;;;5070167;28;1492;-68
2023/12/12 09:48:29;;;;;;;;;;;20.60;65.60;;;;;;5038174;28;1495;-68
2023/12/12 09:50:54;;;;;;;;;;;20.60;66.30;;;;;;5038608;28;1165;-68
2023/12/12 09:53:20;;;;;;;;;;;20.60;65.60;;;;;;5068771;28;1975;-68
2023/12/12 09:55:46;;;;;;;;;;;20.60;65.70;;;;;;5037379;28;1304;-68
2023/12/12 09:58:11;;;;;;;;;;;20.50;65.70;;;;;;5039055;28;1332;-69
2023/12/12 10:00:37;;;;;;;;;;;20.60;66.00;;;;;;5069079;28;1564;-68
2023/12/12 10:03:05;;;;;;;;;;;20.60;65.90;;;;;;5039797;28;1299;-69
2023/12/12 10:05:32;;;;;;;;;;;20.50;65.80;;;;;;5067508;28;1486;-68
2023/12/12 10:07:58;;;;;;;;;;;20.60;65.90;;;;;;5067724;28;1418;-68
2023/12/12 10:10:24;;;;;;;;;;;20.50;65.90;;;;;;5067493;28;1502;-68
2023/12/12 10:12:49;;;;;;;;;;;20.50;65.90;;;;;;5036432;28;1918;-68
2023/12/12 10:15:22;;;;;;;;;;;20.50;65.90;;;;;;5038579;28;1334;-69
2023/12/12 10:17:47;;;;;;;;;;;20.50;65.90;;;;;;5069856;28;1509;-69
2023/12/12 10:20:14;;;;;;;;;;;20.50;65.90;;;;;;5070733;28;1310;-68
2023/12/12 10:22:39;;;;;;;;;;;20.50;66.00;;;;;;5034499;28;1281;-68
2023/12/12 10:25:09;;;;;;;;;;;20.50;66.00;;;;;;5039967;28;1324;-68
2023/12/12 10:27:35;;;;;;;;;;;20.50;65.90;;;;;;5035259;28;1534;-68
2023/12/12 10:30:03;;;;;;;;;;;20.50;66.00;;;;;;5037765;28;1355;-68
2023/12/12 10:32:29;;;;;;;;;;;20.50;66.00;;;;;;5052478;28;1899;-68
2023/12/12 10:34:54;;;;;;;;;;;20.50;65.90;;;;;;5039230;28;1294;-68
2023/12/12 10:37:21;;;;;;;;;;;20.50;66.00;;;;;;5068688;28;1407;-68
2023/12/12 10:39:47;;;;;;;;;;;20.50;65.90;;;;;;5039279;28;1265;-68
2023/12/12 10:42:12;;;;;;;;;;;20.50;65.80;;;;;;5038585;28;1296;-69
2023/12/12 10:44:38;;;;;;;;;;;20.50;65.70;;;;;;5040623;28;1441;-68
2023/12/12 10:47:05;;;;;;;;;;;20.50;66.50;;;;;;5070669;28;1182;-68
2023/12/12 10:49:33;;;;;;;;;;;20.50;65.70;;;;;;5072236;28;1346;-68
2023/12/12 10:52:06;;;;;;;;;;;20.50;65.70;;;;;;5039015;28;1902;-68
2023/12/12 10:54:31;;;;;;;;;;;20.50;65.70;;;;;;5040104;28;1330;-69
2023/12/12 10:56:57;;;;;;;;;;;20.50;65.60;;;;;;5042429;28;1402;-69
2023/12/12 10:59:23;;;;;;;;;;;20.50;65.60;;;;;;5070363;28;1326;-69
2023/12/12 11:01:49;;;;;;;;;;;20.50;65.50;;;;;;5041106;28;1273;-69
2023/12/12 11:04:14;;;;;;;;;;;20.50;65.50;;;;;;5039712;28;1175;-68
2023/12/12 11:06:41;;;;;;;;;;;20.50;65.40;;;;;;5039561;28;1436;-68
2023/12/12 11:09:06;;;;;;;;;;;20.60;65.40;;;;;;5036602;28;1292;-68
2023/12/12 11:11:32;;;;;;;;;;;20.60;65.30;;;;;;5042290;28;1366;-69
2023/12/12 11:14:00;;;;;;;;;;;20.60;65.30;;;;;;5042066;28;1898;-69
2023/12/12 11:16:26;;;;;;;;;;;20.60;65.20;;;;;;5070866;28;1402;-69
2023/12/12 11:18:52;;;;;;;;;;;20.60;65.20;;;;;;5041878;28;1431;-69
2023/12/12 11:21:37;;;;;;;;;;;20.60;65.40;;;;;;5073519;28;1335;-68
2023/12/12 11:24:02;;;;;;;;;;;20.60;65.40;;;;;;5049006;28;1512;-69
2023/12/12 11:26:28;;;;;;;;;;;20.60;65.20;;;;;;5042051;28;1759;-69
2023/12/12 11:28:54;;;;;;;;;;;20.60;65.40;;;;;;5073821;28;2404;-69
2023/12/12 11:31:20;;;;;;;;;;;20.60;65.60;;;;;;5040818;28;1324;-69
2023/12/12 11:34:12;;;;;;;;;;;20.50;65.40;;;;;;5073303;28;1912;-69
2023/12/12 11:36:51;;;;;;;;;;;20.50;65.40;;;;;;5041830;28;1294;-69
2023/12/12 11:39:26;;;;;;;;;;;20.60;65.60;;;;;;5037882;28;1408;-68
2023/12/12 11:41:52;;;;;;;;;;;20.60;65.70;;;;;;5062299;28;1567;-68
2023/12/12 11:44:18;;;;;;;;;;;20.50;65.60;;;;;;5039230;28;1430;-68
2023/12/12 11:46:44;;;;;;;;;;;20.60;65.70;;;;;;5039423;28;1394;-68
2023/12/12 11:49:19;;;;;;;;;;;20.50;65.70;;;;;;5039074;28;1338;-68
2023/12/12 11:51:49;;;;;;;;;;;20.50;65.70;;;;;;5071889;28;873;-68
2023/12/12 11:54:19;;;;;;;;;;;20.50;65.60;;;;;;5041879;28;1308;-69
2023/12/12 11:56:45;;;;;;;;;;;20.50;65.70;;;;;;5038751;28;863;-69
2023/12/12 11:59:10;;;;;;;;;;;20.50;65.70;;;;;;5039168;28;1284;-69
2023/12/12 12:01:36;;;;;;;;;;;20.50;65.70;;;;;;5041892;28;1384;-70
2023/12/12 12:04:01;;;;;;;;;;;20.50;65.80;;;;;;5042217;28;1824;-69
2023/12/12 12:06:26;;;;;;;;;;;20.40;64.50;;;;;;5040964;28;1338;-69
2023/12/12 12:08:52;;;;;;;;;;;20.40;61.50;;;;;;5071935;28;1467;-69
2023/12/12 12:11:20;;;;;;;;;;;20.30;60.00;;;;;;5058173;28;1480;-70
2023/12/12 12:13:46;;;;;;;;;;;20.20;59.30;;;;;;5040729;28;1980;-69
2023/12/12 12:16:12;;;;;;;;;;;20.20;59.00;;;;;;5072796;28;1255;-69
2023/12/12 12:18:37;;;;;;;;;;;20.20;58.70;;;;;;5072077;28;2073;-69
2023/12/12 12:21:03;;;;;;;;;;;20.10;58.20;;;;;;5040578;28;2192;-69
2023/12/12 12:23:29;;;;;;;;;;;20.00;58.00;;;;;;5042540;28;1295;-69
2023/12/12 12:26:01;;;;;;;;;;;20.00;57.90;;;;;;5041842;28;1340;-69
2023/12/12 12:28:30;;;;;;;;;;;20.00;57.60;;;;;;5039250;28;1980;-68
2023/12/12 12:30:58;;;;;;;;;;;19.90;57.30;;;;;;5037662;28;1368;-69
2023/12/12 12:33:30;;;;;;;;;;;19.90;57.10;;;;;;5037858;28;1898;-68
2023/12/12 12:35:55;;;;;;;;;;;19.90;57.00;;;;;;5070141;28;1549;-69
2023/12/12 12:38:25;;;;;;;;;;;19.80;57.00;;;;;;5037547;28;1374;-68
2023/12/12 12:40:50;;;;;;;;;;;19.80;56.90;;;;;;5039020;28;1316;-68
2023/12/12 12:43:17;;;;;;;;;;;19.80;56.80;;;;;;5073249;28;1354;-71
2023/12/12 12:45:43;;;;;;;;;;;19.80;56.80;;;;;;5040360;28;1802;-67
2023/12/12 12:48:08;;;;;;;;;;;19.70;56.70;;;;;;5038787;28;1708;-68
2023/12/12 12:50:34;;;;;;;;;;;19.70;56.60;;;;;;5067880;28;1254;-67
2023/12/12 12:53:01;;;;;;;;;;;19.70;56.50;;;;;;5039738;28;1968;-67
2023/12/12 12:55:26;;;;;;;;;;;19.70;56.40;;;;;;5036005;28;1421;-68
2023/12/12 12:57:52;;;;;;;;;;;19.70;56.20;;;;;;5037288;28;1269;-69
2023/12/12 13:00:17;;;;;;;;;;;19.60;56.10;;;;;;5069132;28;1285;-69
2023/12/12 13:02:44;;;;;;;;;;;19.60;56.00;;;;;;5068330;28;2123;-68
2023/12/12 13:05:10;;;;;;;;;;;19.60;55.90;;;;;;5072014;28;1153;-69
2023/12/12 13:07:35;;;;;;;;;;;19.60;56.00;;;;;;5036949;28;1809;-68
2023/12/12 13:10:00;;;;;;;;;;;19.50;55.80;;;;;;5036539;28;1317;-70
2023/12/12 13:12:26;;;;;;;;;;;19.50;55.80;;;;;;5038826;28;1956;-70
2023/12/12 13:14:53;;;;;;;;;;;19.50;55.80;;;;;;5041495;28;1224;-68
2023/12/12 13:17:19;;;;;;;;;;;19.50;55.70;;;;;;5057413;28;1409;-69
2023/12/12 13:19:44;;;;;;;;;;;19.50;55.50;;;;;;5037580;28;1269;-68
2023/12/12 13:22:10;;;;;;;;;;;19.50;55.50;;;;;;5037618;28;1365;-68
2023/12/12 13:24:35;;;;;;;;;;;19.40;55.30;;;;;;5039839;28;1255;-68
2023/12/12 13:27:01;;;;;;;;;;;19.40;55.20;;;;;;5037572;28;1371;-69
2023/12/12 13:29:26;;;;;;;;;;;19.40;55.10;;;;;;5040217;28;1622;-68
2023/12/12 13:31:52;;;;;;;;;;;19.40;55.00;;;;;;5040639;28;1902;-69
2023/12/12 13:34:17;;;;;;;;;;;19.40;54.90;;;;;;5039072;28;1261;-70
2023/12/12 13:36:43;;;;;;;;;;;19.40;54.90;;;;;;5039060;28;1403;-69
2023/12/12 13:39:14;;;;;;;;;;;19.40;54.80;;;;;;5038209;28;1436;-70
2023/12/12 13:41:40;;;;;;;;;;;19.30;54.60;;;;;;5067456;28;1631;-69
2023/12/12 13:44:06;;;;;;;;;;;19.30;54.60;;;;;;5040233;28;1271;-70
2023/12/12 13:46:31;;;;;;;;;;;19.30;54.50;;;;;;5039043;28;1361;-69
2023/12/12 13:48:56;;;;;;;;;;;19.30;54.50;;;;;;5041979;28;1477;-67
2023/12/12 13:51:22;;;;;;;;;;;19.30;54.50;;;;;;5040992;28;1352;-68
2023/12/12 13:53:50;;;;;;;;;;;19.30;54.40;;;;;;5041368;28;1906;-70
2023/12/12 13:56:16;;;;;;;;;;;19.30;54.30;;;;;;5037541;28;1436;-68
2023/12/12 13:58:41;;;;;;;;;;;19.30;54.30;;;;;;5038512;28;1407;-68
2023/12/12 14:01:06;;;;;;;;;;;19.30;54.30;;;;;;5041401;28;1180;-68
2023/12/12 14:03:32;;;;;;;;;;;19.20;54.10;;;;;;5039279;28;1605;-69
2023/12/12 14:05:57;;;;;;;;;;;19.20;54.10;;;;;;5038826;28;1466;-69
2023/12/12 14:08:23;;;;;;;;;;;19.20;54.00;;;;;;5038672;28;1355;-68
2023/12/12 14:10:49;;;;;;;;;;;19.20;54.00;;;;;;5070104;28;1537;-67
2023/12/12 14:13:14;;;;;;;;;;;19.20;54.00;;;;;;5071682;28;1937;-68
2023/12/12 14:15:40;;;;;;;;;;;19.20;53.90;;;;;;5040471;28;1313;-69
2023/12/12 14:18:05;;;;;;;;;;;19.20;54.30;;;;;;5039026;28;1398;-67
2023/12/12 14:20:31;;;;;;;;;;;19.10;54.70;;;;;;5070055;28;1409;-68
2023/12/12 14:22:56;;;;;;;;;;;19.20;54.80;;;;;;5042622;28;1942;-70